Wilson Gaeta — 8PTS — position and weather

sailwx.info

Track history (hours):
 
Tides and Currents Weather Stations Pressure Air Temp Water Temp Dewpoint Dewpoint Depression Visibility Wind Speed Wind Dir Waves Ship Positions

Wilson Gaeta

Last reported at 2018-Apr-21 03:58 UTC. Time now 2018-Apr-21 04:10 UTC.
Position N 59°30' E 024°57'.

Length 88 m; draft 3.9 m.

Type: Ship. MMSI: 314237000.

Date/timePositionNaut miles runAvg speedWind from/ knotsBaromVisibWave heightAir tempDewpointWater temp
2018-Apr-21 03:58N 59°30' E 024°57'0 0.0
2018-Apr-21 03:28N 59°30' E 024°57'0 0.0
2018-Apr-21 02:58N 59°30' E 024°57'0 0.0
2018-Apr-21 02:28N 59°30' E 024°57'0 0.0
2018-Apr-21 01:58N 59°30' E 024°57'0 0.0
2018-Apr-21 01:28N 59°30' E 024°57'0 0.0
2018-Apr-21 00:58N 59°30' E 024°57'0 0.0
2018-Apr-21 00:28N 59°30' E 024°57'0 0.0
2018-Apr-20 23:58N 59°30' E 024°57'0 0.0
2018-Apr-20 23:28N 59°30' E 024°57'0 0.4
2018-Apr-20 23:00N 59°30' E 024°57'3 5.8
2018-Apr-20 22:30N 59°33' E 024°56'5 9.7
2018-Apr-20 22:01N 59°36' E 024°49'4 7.7
2018-Apr-20 21:30N 59°36' E 024°41'5 9.8
2018-Apr-20 21:00N 59°32' E 024°44'4 8.5
2018-Apr-20 20:31N 59°29' E 024°38'1 2.7
2018-Apr-20 19:59N 59°28' E 024°39'0 0.0
2018-Apr-20 19:29N 59°28' E 024°39'0 0.0
2018-Apr-20 18:59N 59°28' E 024°39'0 0.0
2018-Apr-20 18:29N 59°28' E 024°39'0 0.0
2018-Apr-20 17:59N 59°28' E 024°39'0 0.0
2018-Apr-20 17:29N 59°28' E 024°39'0 0.0
2018-Apr-20 16:56N 59°28' E 024°39'0 0.0
2018-Apr-20 16:29N 59°28' E 024°39'0 0.0
2018-Apr-20 15:59N 59°28' E 024°39'0 0.0
2018-Apr-20 15:29N 59°28' E 024°39'0 0.0
2018-Apr-20 14:56N 59°28' E 024°39'0 0.1
2018-Apr-20 14:29N 59°28' E 024°39'0 0.4
2018-Apr-20 13:59N 59°28' E 024°39'0 0.0
2018-Apr-20 13:29N 59°28' E 024°39'0 0.0
2018-Apr-20 12:59N 59°28' E 024°39'0 0.0
2018-Apr-20 12:29N 59°28' E 024°39'0 0.0
2018-Apr-20 11:59N 59°28' E 024°39'0 0.0
2018-Apr-20 11:29N 59°28' E 024°39'0 0.0
2018-Apr-20 07:44N 59°28' E 024°39'0 0.0
2018-Apr-20 07:29N 59°28' E 024°39'0 0.0
2018-Apr-20 06:59N 59°28' E 024°39'0 0.1
2018-Apr-20 06:26N 59°28' E 024°39'0 0.1
2018-Apr-20 05:59N 59°28' E 024°39'0 0.0
2018-Apr-20 05:23N 59°28' E 024°39'0 0.0
2018-Apr-20 04:56N 59°28' E 024°39'0 0.0
2018-Apr-20 04:29N 59°28' E 024°39'0 0.0
2018-Apr-20 03:59N 59°28' E 024°39'0 0.0
2018-Apr-20 03:29N 59°28' E 024°39'0 0.0
2018-Apr-20 02:59N 59°28' E 024°39'0 0.0
2018-Apr-20 02:26N 59°28' E 024°39'0 0.0
2018-Apr-20 01:59N 59°28' E 024°39'0 0.0
2018-Apr-20 01:29N 59°28' E 024°39'0 0.0
2018-Apr-20 00:56N 59°28' E 024°39'0 0.0
2018-Apr-20 00:26N 59°28' E 024°39'0 0.0
2018-Apr-19 23:50N 59°28' E 024°39'0 0.0
2018-Apr-19 23:29N 59°28' E 024°39'0 0.0
2018-Apr-19 22:56N 59°28' E 024°39'0 0.0
2018-Apr-19 22:02N 59°28' E 024°39'0 0.0
2018-Apr-19 21:44N 59°28' E 024°39'0 0.0
2018-Apr-19 21:29N 59°28' E 024°39'0 0.0
2018-Apr-19 20:59N 59°28' E 024°39'0 0.0
2018-Apr-19 20:29N 59°28' E 024°39'0 0.0
2018-Apr-19 19:56N 59°28' E 024°39'0 0.0
2018-Apr-19 19:26N 59°28' E 024°39'0 0.0
2018-Apr-19 18:59N 59°28' E 024°39'0 0.0
2018-Apr-19 18:20N 59°28' E 024°39'0 0.0
2018-Apr-19 17:50N 59°28' E 024°39'0 0.0
2018-Apr-19 16:56N 59°28' E 024°39'0 0.0
2018-Apr-19 16:29N 59°28' E 024°39'0 0.0
2018-Apr-19 15:41N 59°28' E 024°39'0 0.0
2018-Apr-19 15:17N 59°28' E 024°39'0 0.0
2018-Apr-19 14:50N 59°28' E 024°39'0 0.1
2018-Apr-19 14:29N 59°28' E 024°39'0 0.0
2018-Apr-19 13:50N 59°28' E 024°39'0 0.0
2018-Apr-19 12:44N 59°28' E 024°39'0 0.0
2018-Apr-19 12:26N 59°28' E 024°39'0 0.0
2018-Apr-19 11:59N 59°28' E 024°39'0 0.0
2018-Apr-19 11:26N 59°28' E 024°39'0 0.0
2018-Apr-19 10:59N 59°28' E 024°39'0 0.0
2018-Apr-19 10:29N 59°28' E 024°39'0 0.0
2018-Apr-19 09:59N 59°28' E 024°39'0 0.0
2018-Apr-19 09:23N 59°28' E 024°39'0 0.0
2018-Apr-19 05:53N 59°28' E 024°39'0 0.0
2018-Apr-19 05:29N 59°28' E 024°39'0 0.0
2018-Apr-19 04:59N 59°28' E 024°39'0 0.0
2018-Apr-19 04:29N 59°28' E 024°39'0 0.0
2018-Apr-19 03:56N 59°28' E 024°39'0 0.0
2018-Apr-19 03:29N 59°28' E 024°39'0 0.0
2018-Apr-19 02:59N 59°28' E 024°39'0 0.0
2018-Apr-19 02:29N 59°28' E 024°39'0 0.0
2018-Apr-19 01:59N 59°28' E 024°39'0 0.0
2018-Apr-19 01:29N 59°28' E 024°39'0 0.0
2018-Apr-19 00:59N 59°28' E 024°39'0 0.0
2018-Apr-19 00:29N 59°28' E 024°39'0 0.0
2018-Apr-18 23:59N 59°28' E 024°39'0 0.0
2018-Apr-18 23:29N 59°28' E 024°39'0 0.0
2018-Apr-18 22:59N 59°28' E 024°39'0 0.0
2018-Apr-18 22:29N 59°28' E 024°39'0 0.0
2018-Apr-18 21:59N 59°28' E 024°39'0 0.0
2018-Apr-18 21:29N 59°28' E 024°39'0 0.0
2018-Apr-18 20:59N 59°28' E 024°39'0 0.0
2018-Apr-18 20:29N 59°28' E 024°39'0 0.0
2018-Apr-18 19:59N 59°28' E 024°39'0 0.0
2018-Apr-18 19:29N 59°28' E 024°39'0 0.0
2018-Apr-18 18:59N 59°28' E 024°39'0 0.0
2018-Apr-18 18:29N 59°28' E 024°39'0 0.0
2018-Apr-18 17:59N 59°28' E 024°39'0 0.0
2018-Apr-18 17:29N 59°28' E 024°39'0 0.0
2018-Apr-18 16:59N 59°28' E 024°39'0 0.0
2018-Apr-18 16:29N 59°28' E 024°39'0 0.0
2018-Apr-18 15:59N 59°28' E 024°39'0 0.0
2018-Apr-18 15:29N 59°28' E 024°39'0 0.0
2018-Apr-18 14:59N 59°28' E 024°39'0 0.0
2018-Apr-18 14:29N 59°28' E 024°39'0 0.0
2018-Apr-18 13:59N 59°28' E 024°39'0 0.0
2018-Apr-18 13:29N 59°28' E 024°39'0 0.0
2018-Apr-18 12:59N 59°28' E 024°39'0 0.0
2018-Apr-18 12:29N 59°28' E 024°39'0 0.0
2018-Apr-18 11:59N 59°28' E 024°39'0 0.0
2018-Apr-18 11:28N 59°28' E 024°39'0 0.0
2018-Apr-18 10:58N 59°28' E 024°39'0 0.0
2018-Apr-18 10:28N 59°28' E 024°39'0 0.0
2018-Apr-18 09:58N 59°28' E 024°39'0 0.0
2018-Apr-18 09:28N 59°28' E 024°39'0 0.0
2018-Apr-18 08:58N 59°28' E 024°39'0 0.0
2018-Apr-18 08:28N 59°28' E 024°39'0 0.0
2018-Apr-18 07:55N 59°28' E 024°39'0 0.0
2018-Apr-18 07:28N 59°28' E 024°39'0 0.0
2018-Apr-18 06:58N 59°28' E 024°39'0 0.0
2018-Apr-18 06:28N 59°28' E 024°39'0 0.0
2018-Apr-18 05:58N 59°28' E 024°39'0 0.0
2018-Apr-18 05:28N 59°28' E 024°39'0 0.0
2018-Apr-18 04:58N 59°28' E 024°39'0 0.0
2018-Apr-18 04:28N 59°28' E 024°39'0 0.0
2018-Apr-18 03:58N 59°28' E 024°39'0 0.0
2018-Apr-18 03:28N 59°28' E 024°39'0 0.0
2018-Apr-18 02:58N 59°28' E 024°39'0 0.0
2018-Apr-18 02:28N 59°28' E 024°39'0 0.0
2018-Apr-18 01:58N 59°28' E 024°39'0 0.0
2018-Apr-18 01:28N 59°28' E 024°39'0 0.0
2018-Apr-18 00:58N 59°28' E 024°39'0 0.0
2018-Apr-18 00:28N 59°28' E 024°39'0 0.0
2018-Apr-17 23:58N 59°28' E 024°39'0 0.0
2018-Apr-17 23:28N 59°28' E 024°39'0 0.0
2018-Apr-17 22:58N 59°28' E 024°39'0 0.0
2018-Apr-17 22:28N 59°28' E 024°39'0 0.0
2018-Apr-17 21:58N 59°28' E 024°39'0 0.0
2018-Apr-17 21:28N 59°28' E 024°39'0 0.0
2018-Apr-17 20:58N 59°28' E 024°39'0 0.0
2018-Apr-17 20:28N 59°28' E 024°39'0 0.0
2018-Apr-17 19:58N 59°28' E 024°39'0 0.0
2018-Apr-17 19:28N 59°28' E 024°39'0 0.0
2018-Apr-17 18:58N 59°28' E 024°39'0 0.0
2018-Apr-17 18:28N 59°28' E 024°39'0 0.0
2018-Apr-17 17:58N 59°28' E 024°39'0 0.0
2018-Apr-17 17:28N 59°28' E 024°39'0 0.0
2018-Apr-17 16:58N 59°28' E 024°39'0 0.0
2018-Apr-17 16:28N 59°28' E 024°39'0 0.0
2018-Apr-17 15:58N 59°28' E 024°39'0 0.0
2018-Apr-17 15:28N 59°28' E 024°39'0 0.0
2018-Apr-17 14:58N 59°28' E 024°39'0 0.0
2018-Apr-17 14:28N 59°28' E 024°39'0 0.0
2018-Apr-17 13:58N 59°28' E 024°39'0 0.0
2018-Apr-17 13:28N 59°28' E 024°39'0 0.0
2018-Apr-17 12:58N 59°28' E 024°39'0 0.0
2018-Apr-17 12:28N 59°28' E 024°39'0 0.0
2018-Apr-17 11:58N 59°28' E 024°39'0 0.0
2018-Apr-17 11:28N 59°28' E 024°39'0 0.0
2018-Apr-17 10:58N 59°28' E 024°39'0 0.0
2018-Apr-17 10:28N 59°28' E 024°39'0 0.0
2018-Apr-17 09:58N 59°28' E 024°39'0 0.0
2018-Apr-17 09:28N 59°28' E 024°39'0 0.0
2018-Apr-17 08:58N 59°28' E 024°39'0 0.0
2018-Apr-17 08:28N 59°28' E 024°39'0 0.0
2018-Apr-17 07:58N 59°28' E 024°39'0 0.0
2018-Apr-17 07:28N 59°28' E 024°39'0 0.0
2018-Apr-17 06:58N 59°28' E 024°39'0 0.0
2018-Apr-17 06:28N 59°28' E 024°39'0 0.0
2018-Apr-17 05:58N 59°28' E 024°39'0 0.0
2018-Apr-17 05:28N 59°28' E 024°39'0 0.0
2018-Apr-17 04:58N 59°28' E 024°39'0 0.0
2018-Apr-17 04:28N 59°28' E 024°39'0 0.0
2018-Apr-17 03:58N 59°28' E 024°39'0 0.0
2018-Apr-17 03:28N 59°28' E 024°39'0 0.0
2018-Apr-17 02:58N 59°28' E 024°39'0 0.0
2018-Apr-17 02:28N 59°28' E 024°39'0 0.0
2018-Apr-17 01:58N 59°28' E 024°39'0 0.0
2018-Apr-17 01:28N 59°28' E 024°39'0 0.0
2018-Apr-17 00:58N 59°28' E 024°39'0 0.0
2018-Apr-17 00:28N 59°28' E 024°39'0 0.0
2018-Apr-16 23:58N 59°28' E 024°39'0 0.0
2018-Apr-16 23:28N 59°28' E 024°39'0 0.0
2018-Apr-16 22:58N 59°28' E 024°39'0 0.0
2018-Apr-16 22:28N 59°28' E 024°39'0 0.0
2018-Apr-16 21:58N 59°28' E 024°39'0 0.0
2018-Apr-16 21:28N 59°28' E 024°39'0 0.0
2018-Apr-16 20:58N 59°28' E 024°39'0 0.0
2018-Apr-16 20:28N 59°28' E 024°39'0 0.0
2018-Apr-16 19:58N 59°28' E 024°39'0 0.0
2018-Apr-16 19:28N 59°28' E 024°39'0 0.0
2018-Apr-16 18:58N 59°28' E 024°39'0 0.0
2018-Apr-16 18:28N 59°28' E 024°39'0 0.0
2018-Apr-16 17:58N 59°28' E 024°39'0 0.0
2018-Apr-16 17:28N 59°28' E 024°39'0 0.0
2018-Apr-16 16:58N 59°28' E 024°39'0 0.0
2018-Apr-16 16:28N 59°28' E 024°39'0 0.0
2018-Apr-16 15:58N 59°28' E 024°39'0 0.0
2018-Apr-16 15:28N 59°28' E 024°39'0 0.0
2018-Apr-16 14:58N 59°28' E 024°39'0 0.0
2018-Apr-16 14:28N 59°28' E 024°39'0 0.0
2018-Apr-16 13:58N 59°28' E 024°39'0 0.0
2018-Apr-16 13:28N 59°28' E 024°39'0 0.0
2018-Apr-16 12:58N 59°28' E 024°39'0 0.0
2018-Apr-16 12:28N 59°28' E 024°39'0 0.0
2018-Apr-16 11:55N 59°28' E 024°39'0 0.0
2018-Apr-16 11:28N 59°28' E 024°39'0 0.0
2018-Apr-16 10:58N 59°28' E 024°39'0 0.0
2018-Apr-16 10:28N 59°28' E 024°39'0 0.0
2018-Apr-16 09:58N 59°28' E 024°39'0 0.0
2018-Apr-16 09:28N 59°28' E 024°39'0 0.0
2018-Apr-16 08:58N 59°28' E 024°39'0 0.0
2018-Apr-16 08:28N 59°28' E 024°39'0 0.0
2018-Apr-16 07:58N 59°28' E 024°39'0 0.0
2018-Apr-16 07:28N 59°28' E 024°39'0 0.0
2018-Apr-16 06:58N 59°28' E 024°39'0 0.0
2018-Apr-16 06:28N 59°28' E 024°39'0 0.0
2018-Apr-16 05:58N 59°28' E 024°39'0 0.0
2018-Apr-16 05:28N 59°28' E 024°39'0 0.0
2018-Apr-16 04:58N 59°28' E 024°39'0 0.0
2018-Apr-16 04:28N 59°28' E 024°39'0 0.0
2018-Apr-16 03:58N 59°28' E 024°39'0 0.0
2018-Apr-16 03:28N 59°28' E 024°39'0 0.0
2018-Apr-16 02:58N 59°28' E 024°39'0 0.0
2018-Apr-16 02:28N 59°28' E 024°39'0 0.0
2018-Apr-16 01:58N 59°28' E 024°39'0 0.0
2018-Apr-16 01:28N 59°28' E 024°39'0 0.0
2018-Apr-16 00:58N 59°28' E 024°39'0 0.0
2018-Apr-16 00:28N 59°28' E 024°39'0 0.0
2018-Apr-15 23:58N 59°28' E 024°39'0 0.0
2018-Apr-15 23:28N 59°28' E 024°39'0 0.0
2018-Apr-15 22:58N 59°28' E 024°39'0 0.0
2018-Apr-15 22:28N 59°28' E 024°39'0 0.0
2018-Apr-15 21:58N 59°28' E 024°39'0 0.0
2018-Apr-15 21:28N 59°28' E 024°39'0 0.0
2018-Apr-15 20:58N 59°28' E 024°39'0 0.0
2018-Apr-15 20:28N 59°28' E 024°39'0 0.0
2018-Apr-15 19:58N 59°28' E 024°39'0 0.0
2018-Apr-15 19:28N 59°28' E 024°39'0 0.0
2018-Apr-15 18:58N 59°28' E 024°39'0 0.0
2018-Apr-15 18:28N 59°28' E 024°39'0 0.0
2018-Apr-15 17:58N 59°28' E 024°39'0 0.0
2018-Apr-15 17:28N 59°28' E 024°39'0 0.0
2018-Apr-15 16:58N 59°28' E 024°39'0 0.0
2018-Apr-15 16:28N 59°28' E 024°39'0 0.0
2018-Apr-15 15:58N 59°28' E 024°39'0 0.0
2018-Apr-15 15:25N 59°28' E 024°39'0 0.0
2018-Apr-15 14:58N 59°28' E 024°39'0 0.0
2018-Apr-15 14:28N 59°28' E 024°39'0 0.0
2018-Apr-15 13:58N 59°28' E 024°39'0 0.0
2018-Apr-15 13:28N 59°28' E 024°39'0 0.0
2018-Apr-15 12:58N 59°28' E 024°39'0 0.0
2018-Apr-15 12:28N 59°28' E 024°39'0 0.0
2018-Apr-15 11:58N 59°28' E 024°39'0 0.0
2018-Apr-15 11:28N 59°28' E 024°39'0 0.0
2018-Apr-15 10:58N 59°28' E 024°39'0 0.0
2018-Apr-15 10:28N 59°28' E 024°39'0 0.0
2018-Apr-15 06:49N 59°28' E 024°39'0 0.0
2018-Apr-15 06:28N 59°28' E 024°39'0 0.0
2018-Apr-15 05:58N 59°28' E 024°39'0 0.0
2018-Apr-15 05:28N 59°28' E 024°39'0 0.0
2018-Apr-15 04:58N 59°28' E 024°39'0 0.0
2018-Apr-15 04:28N 59°28' E 024°39'0 0.0
2018-Apr-15 03:58N 59°28' E 024°39'0 0.0
2018-Apr-15 03:28N 59°28' E 024°39'0 0.0
2018-Apr-15 02:58N 59°28' E 024°39'0 0.0
2018-Apr-15 02:28N 59°28' E 024°39'0 0.0
2018-Apr-15 01:58N 59°28' E 024°39'0 0.0
2018-Apr-15 01:28N 59°28' E 024°39'0 0.0
2018-Apr-15 00:58N 59°28' E 024°39'0 0.0
2018-Apr-15 00:28N 59°28' E 024°39'0 0.0
2018-Apr-14 23:58N 59°28' E 024°39'0 0.0
2018-Apr-14 23:28N 59°28' E 024°39'0 0.0
2018-Apr-14 22:58N 59°28' E 024°39'0 0.0
2018-Apr-14 22:28N 59°28' E 024°39'0 0.0
2018-Apr-14 21:58N 59°28' E 024°39'0 0.0
2018-Apr-14 21:28N 59°28' E 024°39'0 0.0
2018-Apr-14 20:58N 59°28' E 024°39'0 0.0
2018-Apr-14 20:28N 59°28' E 024°39'0 0.0
2018-Apr-14 19:58N 59°28' E 024°39'0 0.0
2018-Apr-14 19:28N 59°28' E 024°39'0 0.0
2018-Apr-14 18:58N 59°28' E 024°39'0 0.0
2018-Apr-14 18:28N 59°28' E 024°39'0 0.0
2018-Apr-14 17:58N 59°28' E 024°39'0 0.0
2018-Apr-14 17:28N 59°28' E 024°39'0 0.0
2018-Apr-14 16:58N 59°28' E 024°39'0 0.0
2018-Apr-14 16:28N 59°28' E 024°39'0 0.0
2018-Apr-14 15:58N 59°28' E 024°39'0 0.0
2018-Apr-14 15:28N 59°28' E 024°39'0 0.0
2018-Apr-14 14:58N 59°28' E 024°39'0 0.0
2018-Apr-14 14:28N 59°28' E 024°39'0 0.0
2018-Apr-14 13:58N 59°28' E 024°39'0 0.0
2018-Apr-14 13:28N 59°28' E 024°39'0 0.0
2018-Apr-14 12:58N 59°28' E 024°39'0 0.0
2018-Apr-14 12:28N 59°28' E 024°39'0 0.0
2018-Apr-14 11:58N 59°28' E 024°39'0 0.0
2018-Apr-14 11:28N 59°28' E 024°39'0 0.0
2018-Apr-14 10:58N 59°28' E 024°39'0 0.0
2018-Apr-14 10:28N 59°28' E 024°39'0 0.0
2018-Apr-14 09:58N 59°28' E 024°39'0 0.0
2018-Apr-14 09:28N 59°28' E 024°39'0 0.0
2018-Apr-14 08:58N 59°28' E 024°39'0 0.0
2018-Apr-14 08:28N 59°28' E 024°39'0 0.0
2018-Apr-14 07:58N 59°28' E 024°39'0 0.0
2018-Apr-14 07:28N 59°28' E 024°39'0 0.0
2018-Apr-14 06:58N 59°28' E 024°39'0 0.0
2018-Apr-14 06:28N 59°28' E 024°39'0 0.0
2018-Apr-14 05:58N 59°28' E 024°39'0 0.0
2018-Apr-14 05:28N 59°28' E 024°39'0 0.0
2018-Apr-14 04:58N 59°28' E 024°39'0 0.0
2018-Apr-14 04:28N 59°28' E 024°39'0 0.0
2018-Apr-14 03:58N 59°28' E 024°39'0 0.0
2018-Apr-14 03:28N 59°28' E 024°39'0 0.0
2018-Apr-14 02:58N 59°28' E 024°39'0 0.0
2018-Apr-14 02:28N 59°28' E 024°39'0 0.0
2018-Apr-14 01:58N 59°28' E 024°39'0 0.0
2018-Apr-14 01:28N 59°28' E 024°39'0 0.0
2018-Apr-14 00:58N 59°28' E 024°39'0 0.0
2018-Apr-14 00:28N 59°28' E 024°39'0 0.0
2018-Apr-13 23:58N 59°28' E 024°39'0 0.0
2018-Apr-13 23:28N 59°28' E 024°39'0 0.0
2018-Apr-13 22:55N 59°28' E 024°39'0 0.0
2018-Apr-13 22:28N 59°28' E 024°39'0 0.0
2018-Apr-13 21:58N 59°28' E 024°39'0 0.0
2018-Apr-13 21:28N 59°28' E 024°39'0 0.0
2018-Apr-13 20:58N 59°28' E 024°39'0 0.0
2018-Apr-13 20:28N 59°28' E 024°39'0 0.0
2018-Apr-13 19:58N 59°28' E 024°39'0 0.0
2018-Apr-13 19:28N 59°28' E 024°39'0 0.0
2018-Apr-13 18:58N 59°28' E 024°39'0 0.0
2018-Apr-13 18:28N 59°28' E 024°39'0 0.0
2018-Apr-13 17:58N 59°28' E 024°39'0 0.0
2018-Apr-13 17:28N 59°28' E 024°39'0 0.0
2018-Apr-13 16:58N 59°28' E 024°39'0 0.0
2018-Apr-13 16:28N 59°28' E 024°39'0 0.0
2018-Apr-13 15:58N 59°28' E 024°39'0 0.0
2018-Apr-13 15:28N 59°28' E 024°39'0 0.0
2018-Apr-13 14:58N 59°28' E 024°39'0 0.0
2018-Apr-13 14:28N 59°28' E 024°39'0 0.0
2018-Apr-13 13:58N 59°28' E 024°39'0 0.0
2018-Apr-13 13:28N 59°28' E 024°39'0 0.0
2018-Apr-13 12:58N 59°28' E 024°39'0 0.0
2018-Apr-13 12:28N 59°28' E 024°39'0 0.0
2018-Apr-13 11:58N 59°28' E 024°39'0 0.0
2018-Apr-13 11:28N 59°28' E 024°39'0 0.0
2018-Apr-13 10:58N 59°28' E 024°39'0 0.0
2018-Apr-13 10:28N 59°28' E 024°39'0 0.0
2018-Apr-13 09:58N 59°28' E 024°39'0 0.0
2018-Apr-13 09:28N 59°28' E 024°39'0 0.0
2018-Apr-13 08:58N 59°28' E 024°39'0 0.0
2018-Apr-13 08:28N 59°28' E 024°39'0 0.0
2018-Apr-13 07:58N 59°28' E 024°39'0 0.0
2018-Apr-13 07:28N 59°28' E 024°39'0 0.0
2018-Apr-13 06:58N 59°28' E 024°39'0 0.0
2018-Apr-13 06:28N 59°28' E 024°39'0 0.0
2018-Apr-13 05:58N 59°28' E 024°39'0 0.0
2018-Apr-13 05:28N 59°28' E 024°39'0 0.0
2018-Apr-13 04:58N 59°28' E 024°39'0 0.0
2018-Apr-13 04:28N 59°28' E 024°39'0 0.0
2018-Apr-13 03:58N 59°28' E 024°39'0 0.0
2018-Apr-13 03:28N 59°28' E 024°39'0 0.0
2018-Apr-13 02:58N 59°28' E 024°39'0 0.0
2018-Apr-13 02:28N 59°28' E 024°39'0 0.0
2018-Apr-13 01:58N 59°28' E 024°39'0 0.0
2018-Apr-13 01:28N 59°28' E 024°39'0 0.0
2018-Apr-13 00:58N 59°28' E 024°39'0 0.0
2018-Apr-13 00:28N 59°28' E 024°39'0 0.0
2018-Apr-12 23:58N 59°28' E 024°39'0 0.0
2018-Apr-12 23:28N 59°28' E 024°39'0 0.0
2018-Apr-12 22:58N 59°28' E 024°39'0 0.0
2018-Apr-12 22:28N 59°28' E 024°39'0 0.0
2018-Apr-12 21:58N 59°28' E 024°39'0 0.0
2018-Apr-12 21:28N 59°28' E 024°39'0 0.0
2018-Apr-12 20:58N 59°28' E 024°39'0 0.0
2018-Apr-12 20:28N 59°28' E 024°39'0 0.0
2018-Apr-12 19:58N 59°28' E 024°39'0 0.0
2018-Apr-12 19:28N 59°28' E 024°39'0 0.0
2018-Apr-12 18:58N 59°28' E 024°39'0 0.0
2018-Apr-12 18:28N 59°28' E 024°39'0 0.0
2018-Apr-12 17:55N 59°28' E 024°39'0 0.3
2018-Apr-12 17:28N 59°28' E 024°39'0 0.0
2018-Apr-12 16:58N 59°28' E 024°39'0 0.0
2018-Apr-12 16:28N 59°28' E 024°39'0 0.0
2018-Apr-12 15:58N 59°28' E 024°39'0 0.0
2018-Apr-12 15:28N 59°28' E 024°39'0 0.0
2018-Apr-12 14:58N 59°28' E 024°39'0 0.0
2018-Apr-12 14:28N 59°28' E 024°39'0 0.0
2018-Apr-12 13:58N 59°28' E 024°39'0 0.0
2018-Apr-12 13:28N 59°28' E 024°39'0 0.0
2018-Apr-12 12:58N 59°28' E 024°39'0 0.0
2018-Apr-12 12:28N 59°28' E 024°39'0 0.0
2018-Apr-12 11:58N 59°28' E 024°39'0 0.0
2018-Apr-12 11:22N 59°28' E 024°39'0 0.0
2018-Apr-12 10:58N 59°28' E 024°39'0 0.0
2018-Apr-12 10:28N 59°28' E 024°39'0 0.0
2018-Apr-12 09:58N 59°28' E 024°39'0 0.0
2018-Apr-12 09:28N 59°28' E 024°39'0 0.0
2018-Apr-12 08:58N 59°28' E 024°39'0 0.0
2018-Apr-12 08:28N 59°28' E 024°39'0 0.0
2018-Apr-12 07:58N 59°28' E 024°39'0 0.0
2018-Apr-12 07:28N 59°28' E 024°39'0 0.0
2018-Apr-12 06:58N 59°28' E 024°39'0 0.0
2018-Apr-12 06:28N 59°28' E 024°39'0 0.0
2018-Apr-12 05:58N 59°28' E 024°39'0 0.0
2018-Apr-12 05:28N 59°28' E 024°39'0 0.0
2018-Apr-12 04:58N 59°28' E 024°39'0 0.0
2018-Apr-12 04:28N 59°28' E 024°39'0 0.0
2018-Apr-12 03:58N 59°28' E 024°39'0 0.0
2018-Apr-12 03:28N 59°28' E 024°39'0 0.0
2018-Apr-12 02:58N 59°28' E 024°39'0 0.0
2018-Apr-12 02:28N 59°28' E 024°39'0 0.0
2018-Apr-12 01:58N 59°28' E 024°39'0 0.0
2018-Apr-12 01:28N 59°28' E 024°39'0 0.0
2018-Apr-12 00:58N 59°28' E 024°39'0 0.0
2018-Apr-12 00:28N 59°28' E 024°39'0 0.0
2018-Apr-11 23:58N 59°28' E 024°39'0 0.0
2018-Apr-11 23:28N 59°28' E 024°39'0 0.0
2018-Apr-11 22:58N 59°28' E 024°39'0 0.0
2018-Apr-11 22:28N 59°28' E 024°39'0 0.0
2018-Apr-11 21:58N 59°28' E 024°39'0 0.0
2018-Apr-11 21:28N 59°28' E 024°39'0 0.0
2018-Apr-11 20:55N 59°28' E 024°39'0 0.0
2018-Apr-11 20:28N 59°28' E 024°39'0 0.0
2018-Apr-11 19:58N 59°28' E 024°39'0 0.0
2018-Apr-11 19:28N 59°28' E 024°39'0 0.0
2018-Apr-11 18:58N 59°28' E 024°39'0 0.0
2018-Apr-11 18:28N 59°28' E 024°39'0 0.1
2018-Apr-11 17:58N 59°28' E 024°40'0 0.0
2018-Apr-11 17:28N 59°28' E 024°40'0 0.0
2018-Apr-11 16:58N 59°28' E 024°40'0 0.0
2018-Apr-11 16:28N 59°28' E 024°40'0 0.0
2018-Apr-11 15:58N 59°28' E 024°40'0 0.0
2018-Apr-11 15:28N 59°28' E 024°40'0 0.0
2018-Apr-11 14:58N 59°28' E 024°40'0 0.0
2018-Apr-11 14:28N 59°28' E 024°40'0 0.0
2018-Apr-11 13:58N 59°28' E 024°40'0 0.0
2018-Apr-11 13:28N 59°28' E 024°40'0 0.0
2018-Apr-11 12:58N 59°28' E 024°40'0 0.0
2018-Apr-11 12:28N 59°28' E 024°40'0 0.0
2018-Apr-11 11:58N 59°28' E 024°40'0 0.0
2018-Apr-11 11:28N 59°28' E 024°40'0 0.0
2018-Apr-11 10:58N 59°28' E 024°40'0 0.0
2018-Apr-11 10:28N 59°28' E 024°40'0 0.0
2018-Apr-11 09:58N 59°28' E 024°40'0 0.0
2018-Apr-11 09:28N 59°28' E 024°40'0 0.0
2018-Apr-11 08:58N 59°28' E 024°40'0 0.0
2018-Apr-11 08:28N 59°28' E 024°40'0 0.0
2018-Apr-11 07:58N 59°28' E 024°40'0 0.0
2018-Apr-11 07:28N 59°28' E 024°40'0 0.0
2018-Apr-11 06:58N 59°28' E 024°40'0 0.0
2018-Apr-11 06:28N 59°28' E 024°40'0 0.0
2018-Apr-11 05:58N 59°28' E 024°40'0 0.0
2018-Apr-11 05:28N 59°28' E 024°40'0 0.0
2018-Apr-11 04:58N 59°28' E 024°40'0 0.0
2018-Apr-11 04:28N 59°28' E 024°40'  
Track history (hours):
 
Tides and Currents Weather Stations Pressure Air Temp Water Temp Dewpoint Dewpoint Depression Visibility Wind Speed Wind Dir Waves Ship Positions

Wilson Gaeta

Last reported at 2018-Apr-21 03:58 UTC. Time now 2018-Apr-21 04:10 UTC.
Position N 59°30' E 024°57'.

Length 88 m; draft 3.9 m.

Type: Ship. MMSI: 314237000.

Date/timePositionNaut miles runAvg speedWind from/ knotsBaromVisibWave heightAir tempDewpointWater temp
2018-Apr-21 03:58N 59°30' E 024°57'0 0.0
2018-Apr-21 03:28N 59°30' E 024°57'0 0.0
2018-Apr-21 02:58N 59°30' E 024°57'0 0.0
2018-Apr-21 02:28N 59°30' E 024°57'0 0.0
2018-Apr-21 01:58N 59°30' E 024°57'0 0.0
2018-Apr-21 01:28N 59°30' E 024°57'0 0.0
2018-Apr-21 00:58N 59°30' E 024°57'0 0.0
2018-Apr-21 00:28N 59°30' E 024°57'0 0.0
2018-Apr-20 23:58N 59°30' E 024°57'0 0.0
2018-Apr-20 23:28N 59°30' E 024°57'0 0.4
2018-Apr-20 23:00N 59°30' E 024°57'3 5.8
2018-Apr-20 22:30N 59°33' E 024°56'5 9.7
2018-Apr-20 22:01N 59°36' E 024°49'4 7.7
2018-Apr-20 21:30N 59°36' E 024°41'5 9.8
2018-Apr-20 21:00N 59°32' E 024°44'4 8.5
2018-Apr-20 20:31N 59°29' E 024°38'1 2.7
2018-Apr-20 19:59N 59°28' E 024°39'0 0.0
2018-Apr-20 19:29N 59°28' E 024°39'0 0.0
2018-Apr-20 18:59N 59°28' E 024°39'0 0.0
2018-Apr-20 18:29N 59°28' E 024°39'0 0.0
2018-Apr-20 17:59N 59°28' E 024°39'0 0.0
2018-Apr-20 17:29N 59°28' E 024°39'0 0.0
2018-Apr-20 16:56N 59°28' E 024°39'0 0.0
2018-Apr-20 16:29N 59°28' E 024°39'0 0.0
2018-Apr-20 15:59N 59°28' E 024°39'0 0.0
2018-Apr-20 15:29N 59°28' E 024°39'0 0.0
2018-Apr-20 14:56N 59°28' E 024°39'0 0.1
2018-Apr-20 14:29N 59°28' E 024°39'0 0.4
2018-Apr-20 13:59N 59°28' E 024°39'0 0.0
2018-Apr-20 13:29N 59°28' E 024°39'0 0.0
2018-Apr-20 12:59N 59°28' E 024°39'0 0.0
2018-Apr-20 12:29N 59°28' E 024°39'0 0.0
2018-Apr-20 11:59N 59°28' E 024°39'0 0.0
2018-Apr-20 11:29N 59°28' E 024°39'0 0.0
2018-Apr-20 07:44N 59°28' E 024°39'0 0.0
2018-Apr-20 07:29N 59°28' E 024°39'0 0.0
2018-Apr-20 06:59N 59°28' E 024°39'0 0.1
2018-Apr-20 06:26N 59°28' E 024°39'0 0.1
2018-Apr-20 05:59N 59°28' E 024°39'0 0.0
2018-Apr-20 05:23N 59°28' E 024°39'0 0.0
2018-Apr-20 04:56N 59°28' E 024°39'0 0.0
2018-Apr-20 04:29N 59°28' E 024°39'0 0.0
2018-Apr-20 03:59N 59°28' E 024°39'0 0.0
2018-Apr-20 03:29N 59°28' E 024°39'0 0.0
2018-Apr-20 02:59N 59°28' E 024°39'0 0.0
2018-Apr-20 02:26N 59°28' E 024°39'0 0.0
2018-Apr-20 01:59N 59°28' E 024°39'0 0.0
2018-Apr-20 01:29N 59°28' E 024°39'0 0.0
2018-Apr-20 00:56N 59°28' E 024°39'0 0.0
2018-Apr-20 00:26N 59°28' E 024°39'0 0.0
2018-Apr-19 23:50N 59°28' E 024°39'0 0.0
2018-Apr-19 23:29N 59°28' E 024°39'0 0.0
2018-Apr-19 22:56N 59°28' E 024°39'0 0.0
2018-Apr-19 22:02N 59°28' E 024°39'0 0.0
2018-Apr-19 21:44N 59°28' E 024°39'0 0.0
2018-Apr-19 21:29N 59°28' E 024°39'0 0.0
2018-Apr-19 20:59N 59°28' E 024°39'0 0.0
2018-Apr-19 20:29N 59°28' E 024°39'0 0.0
2018-Apr-19 19:56N 59°28' E 024°39'0 0.0
2018-Apr-19 19:26N 59°28' E 024°39'0 0.0
2018-Apr-19 18:59N 59°28' E 024°39'0 0.0
2018-Apr-19 18:20N 59°28' E 024°39'0 0.0
2018-Apr-19 17:50N 59°28' E 024°39'0 0.0
2018-Apr-19 16:56N 59°28' E 024°39'0 0.0
2018-Apr-19 16:29N 59°28' E 024°39'0 0.0
2018-Apr-19 15:41N 59°28' E 024°39'0 0.0
2018-Apr-19 15:17N 59°28' E 024°39'0 0.0
2018-Apr-19 14:50N 59°28' E 024°39'0 0.1
2018-Apr-19 14:29N 59°28' E 024°39'0 0.0
2018-Apr-19 13:50N 59°28' E 024°39'0 0.0
2018-Apr-19 12:44N 59°28' E 024°39'0 0.0
2018-Apr-19 12:26N 59°28' E 024°39'0 0.0
2018-Apr-19 11:59N 59°28' E 024°39'0 0.0
2018-Apr-19 11:26N 59°28' E 024°39'0 0.0
2018-Apr-19 10:59N 59°28' E 024°39'0 0.0
2018-Apr-19 10:29N 59°28' E 024°39'0 0.0
2018-Apr-19 09:59N 59°28' E 024°39'0 0.0
2018-Apr-19 09:23N 59°28' E 024°39'0 0.0
2018-Apr-19 05:53N 59°28' E 024°39'0 0.0
2018-Apr-19 05:29N 59°28' E 024°39'0 0.0
2018-Apr-19 04:59N 59°28' E 024°39'0 0.0
2018-Apr-19 04:29N 59°28' E 024°39'0 0.0
2018-Apr-19 03:56N 59°28' E 024°39'0 0.0
2018-Apr-19 03:29N 59°28' E 024°39'0 0.0
2018-Apr-19 02:59N 59°28' E 024°39'0 0.0
2018-Apr-19 02:29N 59°28' E 024°39'0 0.0
2018-Apr-19 01:59N 59°28' E 024°39'0 0.0
2018-Apr-19 01:29N 59°28' E 024°39'0 0.0
2018-Apr-19 00:59N 59°28' E 024°39'0 0.0
2018-Apr-19 00:29N 59°28' E 024°39'0 0.0
2018-Apr-18 23:59N 59°28' E 024°39'0 0.0
2018-Apr-18 23:29N 59°28' E 024°39'0 0.0
2018-Apr-18 22:59N 59°28' E 024°39'0 0.0
2018-Apr-18 22:29N 59°28' E 024°39'0 0.0
2018-Apr-18 21:59N 59°28' E 024°39'0 0.0
2018-Apr-18 21:29N 59°28' E 024°39'0 0.0
2018-Apr-18 20:59N 59°28' E 024°39'0 0.0
2018-Apr-18 20:29N 59°28' E 024°39'0 0.0
2018-Apr-18 19:59N 59°28' E 024°39'0 0.0
2018-Apr-18 19:29N 59°28' E 024°39'0 0.0
2018-Apr-18 18:59N 59°28' E 024°39'0 0.0
2018-Apr-18 18:29N 59°28' E 024°39'0 0.0
2018-Apr-18 17:59N 59°28' E 024°39'0 0.0
2018-Apr-18 17:29N 59°28' E 024°39'0 0.0
2018-Apr-18 16:59N 59°28' E 024°39'0 0.0
2018-Apr-18 16:29N 59°28' E 024°39'0 0.0
2018-Apr-18 15:59N 59°28' E 024°39'0 0.0
2018-Apr-18 15:29N 59°28' E 024°39'0 0.0
2018-Apr-18 14:59N 59°28' E 024°39'0 0.0
2018-Apr-18 14:29N 59°28' E 024°39'0 0.0
2018-Apr-18 13:59N 59°28' E 024°39'0 0.0
2018-Apr-18 13:29N 59°28' E 024°39'0 0.0
2018-Apr-18 12:59N 59°28' E 024°39'0 0.0
2018-Apr-18 12:29N 59°28' E 024°39'0 0.0
2018-Apr-18 11:59N 59°28' E 024°39'0 0.0
2018-Apr-18 11:28N 59°28' E 024°39'0 0.0
2018-Apr-18 10:58N 59°28' E 024°39'0 0.0
2018-Apr-18 10:28N 59°28' E 024°39'0 0.0
2018-Apr-18 09:58N 59°28' E 024°39'0 0.0
2018-Apr-18 09:28N 59°28' E 024°39'0 0.0
2018-Apr-18 08:58N 59°28' E 024°39'0 0.0
2018-Apr-18 08:28N 59°28' E 024°39'0 0.0
2018-Apr-18 07:55N 59°28' E 024°39'0 0.0
2018-Apr-18 07:28N 59°28' E 024°39'0 0.0
2018-Apr-18 06:58N 59°28' E 024°39'0 0.0
2018-Apr-18 06:28N 59°28' E 024°39'0 0.0
2018-Apr-18 05:58N 59°28' E 024°39'0 0.0
2018-Apr-18 05:28N 59°28' E 024°39'0 0.0
2018-Apr-18 04:58N 59°28' E 024°39'0 0.0
2018-Apr-18 04:28N 59°28' E 024°39'0 0.0
2018-Apr-18 03:58N 59°28' E 024°39'0 0.0
2018-Apr-18 03:28N 59°28' E 024°39'0 0.0
2018-Apr-18 02:58N 59°28' E 024°39'0 0.0
2018-Apr-18 02:28N 59°28' E 024°39'0 0.0
2018-Apr-18 01:58N 59°28' E 024°39'0 0.0
2018-Apr-18 01:28N 59°28' E 024°39'0 0.0
2018-Apr-18 00:58N 59°28' E 024°39'0 0.0
2018-Apr-18 00:28N 59°28' E 024°39'0 0.0
2018-Apr-17 23:58N 59°28' E 024°39'0 0.0
2018-Apr-17 23:28N 59°28' E 024°39'0 0.0
2018-Apr-17 22:58N 59°28' E 024°39'0 0.0
2018-Apr-17 22:28N 59°28' E 024°39'0 0.0
2018-Apr-17 21:58N 59°28' E 024°39'0 0.0
2018-Apr-17 21:28N 59°28' E 024°39'0 0.0
2018-Apr-17 20:58N 59°28' E 024°39'0 0.0
2018-Apr-17 20:28N 59°28' E 024°39'0 0.0
2018-Apr-17 19:58N 59°28' E 024°39'0 0.0
2018-Apr-17 19:28N 59°28' E 024°39'0 0.0
2018-Apr-17 18:58N 59°28' E 024°39'0 0.0
2018-Apr-17 18:28N 59°28' E 024°39'0 0.0
2018-Apr-17 17:58N 59°28' E 024°39'0 0.0
2018-Apr-17 17:28N 59°28' E 024°39'0 0.0
2018-Apr-17 16:58N 59°28' E 024°39'0 0.0
2018-Apr-17 16:28N 59°28' E 024°39'0 0.0
2018-Apr-17 15:58N 59°28' E 024°39'0 0.0
2018-Apr-17 15:28N 59°28' E 024°39'0 0.0
2018-Apr-17 14:58N 59°28' E 024°39'0 0.0
2018-Apr-17 14:28N 59°28' E 024°39'0 0.0
2018-Apr-17 13:58N 59°28' E 024°39'0 0.0
2018-Apr-17 13:28N 59°28' E 024°39'0 0.0
2018-Apr-17 12:58N 59°28' E 024°39'0 0.0
2018-Apr-17 12:28N 59°28' E 024°39'0 0.0
2018-Apr-17 11:58N 59°28' E 024°39'0 0.0
2018-Apr-17 11:28N 59°28' E 024°39'0 0.0
2018-Apr-17 10:58N 59°28' E 024°39'0 0.0
2018-Apr-17 10:28N 59°28' E 024°39'0 0.0
2018-Apr-17 09:58N 59°28' E 024°39'0 0.0
2018-Apr-17 09:28N 59°28' E 024°39'0 0.0
2018-Apr-17 08:58N 59°28' E 024°39'0 0.0
2018-Apr-17 08:28N 59°28' E 024°39'0 0.0
2018-Apr-17 07:58N 59°28' E 024°39'0 0.0
2018-Apr-17 07:28N 59°28' E 024°39'0 0.0
2018-Apr-17 06:58N 59°28' E 024°39'0 0.0
2018-Apr-17 06:28N 59°28' E 024°39'0 0.0
2018-Apr-17 05:58N 59°28' E 024°39'0 0.0
2018-Apr-17 05:28N 59°28' E 024°39'0 0.0
2018-Apr-17 04:58N 59°28' E 024°39'0 0.0
2018-Apr-17 04:28N 59°28' E 024°39'0 0.0
2018-Apr-17 03:58N 59°28' E 024°39'0 0.0
2018-Apr-17 03:28N 59°28' E 024°39'0 0.0
2018-Apr-17 02:58N 59°28' E 024°39'0 0.0
2018-Apr-17 02:28N 59°28' E 024°39'0 0.0
2018-Apr-17 01:58N 59°28' E 024°39'0 0.0
2018-Apr-17 01:28N 59°28' E 024°39'0 0.0
2018-Apr-17 00:58N 59°28' E 024°39'0 0.0
2018-Apr-17 00:28N 59°28' E 024°39'0 0.0
2018-Apr-16 23:58N 59°28' E 024°39'0 0.0
2018-Apr-16 23:28N 59°28' E 024°39'0 0.0
2018-Apr-16 22:58N 59°28' E 024°39'0 0.0
2018-Apr-16 22:28N 59°28' E 024°39'0 0.0
2018-Apr-16 21:58N 59°28' E 024°39'0 0.0
2018-Apr-16 21:28N 59°28' E 024°39'0 0.0
2018-Apr-16 20:58N 59°28' E 024°39'0 0.0
2018-Apr-16 20:28N 59°28' E 024°39'0 0.0
2018-Apr-16 19:58N 59°28' E 024°39'0 0.0
2018-Apr-16 19:28N 59°28' E 024°39'0 0.0
2018-Apr-16 18:58N 59°28' E 024°39'0 0.0
2018-Apr-16 18:28N 59°28' E 024°39'0 0.0
2018-Apr-16 17:58N 59°28' E 024°39'0 0.0
2018-Apr-16 17:28N 59°28' E 024°39'0 0.0
2018-Apr-16 16:58N 59°28' E 024°39'0 0.0
2018-Apr-16 16:28N 59°28' E 024°39'0 0.0
2018-Apr-16 15:58N 59°28' E 024°39'0 0.0
2018-Apr-16 15:28N 59°28' E 024°39'0 0.0
2018-Apr-16 14:58N 59°28' E 024°39'0 0.0
2018-Apr-16 14:28N 59°28' E 024°39'0 0.0
2018-Apr-16 13:58N 59°28' E 024°39'0 0.0
2018-Apr-16 13:28N 59°28' E 024°39'0 0.0
2018-Apr-16 12:58N 59°28' E 024°39'0 0.0
2018-Apr-16 12:28N 59°28' E 024°39'0 0.0
2018-Apr-16 11:55N 59°28' E 024°39'0 0.0
2018-Apr-16 11:28N 59°28' E 024°39'0 0.0
2018-Apr-16 10:58N 59°28' E 024°39'0 0.0
2018-Apr-16 10:28N 59°28' E 024°39'0 0.0
2018-Apr-16 09:58N 59°28' E 024°39'0 0.0
2018-Apr-16 09:28N 59°28' E 024°39'0 0.0
2018-Apr-16 08:58N 59°28' E 024°39'0 0.0
2018-Apr-16 08:28N 59°28' E 024°39'0 0.0
2018-Apr-16 07:58N 59°28' E 024°39'0 0.0
2018-Apr-16 07:28N 59°28' E 024°39'0 0.0
2018-Apr-16 06:58N 59°28' E 024°39'0 0.0
2018-Apr-16 06:28N 59°28' E 024°39'0 0.0
2018-Apr-16 05:58N 59°28' E 024°39'0 0.0
2018-Apr-16 05:28N 59°28' E 024°39'0 0.0
2018-Apr-16 04:58N 59°28' E 024°39'0 0.0
2018-Apr-16 04:28N 59°28' E 024°39'0 0.0
2018-Apr-16 03:58N 59°28' E 024°39'0 0.0
2018-Apr-16 03:28N 59°28' E 024°39'0 0.0
2018-Apr-16 02:58N 59°28' E 024°39'0 0.0
2018-Apr-16 02:28N 59°28' E 024°39'0 0.0
2018-Apr-16 01:58N 59°28' E 024°39'0 0.0
2018-Apr-16 01:28N 59°28' E 024°39'0 0.0
2018-Apr-16 00:58N 59°28' E 024°39'0 0.0
2018-Apr-16 00:28N 59°28' E 024°39'0 0.0
2018-Apr-15 23:58N 59°28' E 024°39'0 0.0
2018-Apr-15 23:28N 59°28' E 024°39'0 0.0
2018-Apr-15 22:58N 59°28' E 024°39'0 0.0
2018-Apr-15 22:28N 59°28' E 024°39'0 0.0
2018-Apr-15 21:58N 59°28' E 024°39'0 0.0
2018-Apr-15 21:28N 59°28' E 024°39'0 0.0
2018-Apr-15 20:58N 59°28' E 024°39'0 0.0
2018-Apr-15 20:28N 59°28' E 024°39'0 0.0
2018-Apr-15 19:58N 59°28' E 024°39'0 0.0
2018-Apr-15 19:28N 59°28' E 024°39'0 0.0
2018-Apr-15 18:58N 59°28' E 024°39'0 0.0
2018-Apr-15 18:28N 59°28' E 024°39'0 0.0
2018-Apr-15 17:58N 59°28' E 024°39'0 0.0
2018-Apr-15 17:28N 59°28' E 024°39'0 0.0
2018-Apr-15 16:58N 59°28' E 024°39'0 0.0
2018-Apr-15 16:28N 59°28' E 024°39'0 0.0
2018-Apr-15 15:58N 59°28' E 024°39'0 0.0
2018-Apr-15 15:25N 59°28' E 024°39'0 0.0
2018-Apr-15 14:58N 59°28' E 024°39'0 0.0
2018-Apr-15 14:28N 59°28' E 024°39'0 0.0
2018-Apr-15 13:58N 59°28' E 024°39'0 0.0
2018-Apr-15 13:28N 59°28' E 024°39'0 0.0
2018-Apr-15 12:58N 59°28' E 024°39'0 0.0
2018-Apr-15 12:28N 59°28' E 024°39'0 0.0
2018-Apr-15 11:58N 59°28' E 024°39'0 0.0
2018-Apr-15 11:28N 59°28' E 024°39'0 0.0
2018-Apr-15 10:58N 59°28' E 024°39'0 0.0
2018-Apr-15 10:28N 59°28' E 024°39'0 0.0
2018-Apr-15 06:49N 59°28' E 024°39'0 0.0
2018-Apr-15 06:28N 59°28' E 024°39'0 0.0
2018-Apr-15 05:58N 59°28' E 024°39'0 0.0
2018-Apr-15 05:28N 59°28' E 024°39'0 0.0
2018-Apr-15 04:58N 59°28' E 024°39'0 0.0
2018-Apr-15 04:28N 59°28' E 024°39'0 0.0
2018-Apr-15 03:58N 59°28' E 024°39'0 0.0
2018-Apr-15 03:28N 59°28' E 024°39'0 0.0
2018-Apr-15 02:58N 59°28' E 024°39'0 0.0
2018-Apr-15 02:28N 59°28' E 024°39'0 0.0
2018-Apr-15 01:58N 59°28' E 024°39'0 0.0
2018-Apr-15 01:28N 59°28' E 024°39'0 0.0
2018-Apr-15 00:58N 59°28' E 024°39'0 0.0
2018-Apr-15 00:28N 59°28' E 024°39'0 0.0
2018-Apr-14 23:58N 59°28' E 024°39'0 0.0
2018-Apr-14 23:28N 59°28' E 024°39'0 0.0
2018-Apr-14 22:58N 59°28' E 024°39'0 0.0
2018-Apr-14 22:28N 59°28' E 024°39'0 0.0
2018-Apr-14 21:58N 59°28' E 024°39'0 0.0
2018-Apr-14 21:28N 59°28' E 024°39'0 0.0
2018-Apr-14 20:58N 59°28' E 024°39'0 0.0
2018-Apr-14 20:28N 59°28' E 024°39'0 0.0
2018-Apr-14 19:58N 59°28' E 024°39'0 0.0
2018-Apr-14 19:28N 59°28' E 024°39'0 0.0
2018-Apr-14 18:58N 59°28' E 024°39'0 0.0
2018-Apr-14 18:28N 59°28' E 024°39'0 0.0
2018-Apr-14 17:58N 59°28' E 024°39'0 0.0
2018-Apr-14 17:28N 59°28' E 024°39'0 0.0
2018-Apr-14 16:58N 59°28' E 024°39'0 0.0
2018-Apr-14 16:28N 59°28' E 024°39'0 0.0
2018-Apr-14 15:58N 59°28' E 024°39'0 0.0
2018-Apr-14 15:28N 59°28' E 024°39'0 0.0
2018-Apr-14 14:58N 59°28' E 024°39'0 0.0
2018-Apr-14 14:28N 59°28' E 024°39'0 0.0
2018-Apr-14 13:58N 59°28' E 024°39'0 0.0
2018-Apr-14 13:28N 59°28' E 024°39'0 0.0
2018-Apr-14 12:58N 59°28' E 024°39'0 0.0
2018-Apr-14 12:28N 59°28' E 024°39'0 0.0
2018-Apr-14 11:58N 59°28' E 024°39'0 0.0
2018-Apr-14 11:28N 59°28' E 024°39'0 0.0
2018-Apr-14 10:58N 59°28' E 024°39'0 0.0
2018-Apr-14 10:28N 59°28' E 024°39'0 0.0
2018-Apr-14 09:58N 59°28' E 024°39'0 0.0
2018-Apr-14 09:28N 59°28' E 024°39'0 0.0
2018-Apr-14 08:58N 59°28' E 024°39'0 0.0
2018-Apr-14 08:28N 59°28' E 024°39'0 0.0
2018-Apr-14 07:58N 59°28' E 024°39'0 0.0
2018-Apr-14 07:28N 59°28' E 024°39'0 0.0
2018-Apr-14 06:58N 59°28' E 024°39'0 0.0
2018-Apr-14 06:28N 59°28' E 024°39'0 0.0
2018-Apr-14 05:58N 59°28' E 024°39'0 0.0
2018-Apr-14 05:28N 59°28' E 024°39'0 0.0
2018-Apr-14 04:58N 59°28' E 024°39'0 0.0
2018-Apr-14 04:28N 59°28' E 024°39'0 0.0
2018-Apr-14 03:58N 59°28' E 024°39'0 0.0
2018-Apr-14 03:28N 59°28' E 024°39'0 0.0
2018-Apr-14 02:58N 59°28' E 024°39'0 0.0
2018-Apr-14 02:28N 59°28' E 024°39'0 0.0
2018-Apr-14 01:58N 59°28' E 024°39'0 0.0
2018-Apr-14 01:28N 59°28' E 024°39'0 0.0
2018-Apr-14 00:58N 59°28' E 024°39'0 0.0
2018-Apr-14 00:28N 59°28' E 024°39'0 0.0
2018-Apr-13 23:58N 59°28' E 024°39'0 0.0
2018-Apr-13 23:28N 59°28' E 024°39'0 0.0
2018-Apr-13 22:55N 59°28' E 024°39'0 0.0
2018-Apr-13 22:28N 59°28' E 024°39'0 0.0
2018-Apr-13 21:58N 59°28' E 024°39'0 0.0
2018-Apr-13 21:28N 59°28' E 024°39'0 0.0
2018-Apr-13 20:58N 59°28' E 024°39'0 0.0
2018-Apr-13 20:28N 59°28' E 024°39'0 0.0
2018-Apr-13 19:58N 59°28' E 024°39'0 0.0
2018-Apr-13 19:28N 59°28' E 024°39'0 0.0
2018-Apr-13 18:58N 59°28' E 024°39'0 0.0
2018-Apr-13 18:28N 59°28' E 024°39'0 0.0
2018-Apr-13 17:58N 59°28' E 024°39'0 0.0
2018-Apr-13 17:28N 59°28' E 024°39'0 0.0
2018-Apr-13 16:58N 59°28' E 024°39'0 0.0
2018-Apr-13 16:28N 59°28' E 024°39'0 0.0
2018-Apr-13 15:58N 59°28' E 024°39'0 0.0
2018-Apr-13 15:28N 59°28' E 024°39'0 0.0
2018-Apr-13 14:58N 59°28' E 024°39'0 0.0
2018-Apr-13 14:28N 59°28' E 024°39'0 0.0
2018-Apr-13 13:58N 59°28' E 024°39'0 0.0
2018-Apr-13 13:28N 59°28' E 024°39'0 0.0
2018-Apr-13 12:58N 59°28' E 024°39'0 0.0
2018-Apr-13 12:28N 59°28' E 024°39'0 0.0
2018-Apr-13 11:58N 59°28' E 024°39'0 0.0
2018-Apr-13 11:28N 59°28' E 024°39'0 0.0
2018-Apr-13 10:58N 59°28' E 024°39'0 0.0
2018-Apr-13 10:28N 59°28' E 024°39'0 0.0
2018-Apr-13 09:58N 59°28' E 024°39'0 0.0
2018-Apr-13 09:28N 59°28' E 024°39'0 0.0
2018-Apr-13 08:58N 59°28' E 024°39'0 0.0
2018-Apr-13 08:28N 59°28' E 024°39'0 0.0
2018-Apr-13 07:58N 59°28' E 024°39'0 0.0
2018-Apr-13 07:28N 59°28' E 024°39'0 0.0
2018-Apr-13 06:58N 59°28' E 024°39'0 0.0
2018-Apr-13 06:28N 59°28' E 024°39'0 0.0
2018-Apr-13 05:58N 59°28' E 024°39'0 0.0
2018-Apr-13 05:28N 59°28' E 024°39'0 0.0
2018-Apr-13 04:58N 59°28' E 024°39'0 0.0
2018-Apr-13 04:28N 59°28' E 024°39'0 0.0
2018-Apr-13 03:58N 59°28' E 024°39'0 0.0
2018-Apr-13 03:28N 59°28' E 024°39'0 0.0
2018-Apr-13 02:58N 59°28' E 024°39'0 0.0
2018-Apr-13 02:28N 59°28' E 024°39'0 0.0
2018-Apr-13 01:58N 59°28' E 024°39'0 0.0
2018-Apr-13 01:28N 59°28' E 024°39'0 0.0
2018-Apr-13 00:58N 59°28' E 024°39'0 0.0
2018-Apr-13 00:28N 59°28' E 024°39'0 0.0
2018-Apr-12 23:58N 59°28' E 024°39'0 0.0
2018-Apr-12 23:28N 59°28' E 024°39'0 0.0
2018-Apr-12 22:58N 59°28' E 024°39'0 0.0
2018-Apr-12 22:28N 59°28' E 024°39'0 0.0
2018-Apr-12 21:58N 59°28' E 024°39'0 0.0
2018-Apr-12 21:28N 59°28' E 024°39'0 0.0
2018-Apr-12 20:58N 59°28' E 024°39'0 0.0
2018-Apr-12 20:28N 59°28' E 024°39'0 0.0
2018-Apr-12 19:58N 59°28' E 024°39'0 0.0
2018-Apr-12 19:28N 59°28' E 024°39'0 0.0
2018-Apr-12 18:58N 59°28' E 024°39'0 0.0
2018-Apr-12 18:28N 59°28' E 024°39'0 0.0
2018-Apr-12 17:55N 59°28' E 024°39'0 0.3
2018-Apr-12 17:28N 59°28' E 024°39'0 0.0
2018-Apr-12 16:58N 59°28' E 024°39'0 0.0
2018-Apr-12 16:28N 59°28' E 024°39'0 0.0
2018-Apr-12 15:58N 59°28' E 024°39'0 0.0
2018-Apr-12 15:28N 59°28' E 024°39'0 0.0
2018-Apr-12 14:58N 59°28' E 024°39'0 0.0
2018-Apr-12 14:28N 59°28' E 024°39'0 0.0
2018-Apr-12 13:58N 59°28' E 024°39'0 0.0
2018-Apr-12 13:28N 59°28' E 024°39'0 0.0
2018-Apr-12 12:58N 59°28' E 024°39'0 0.0
2018-Apr-12 12:28N 59°28' E 024°39'0 0.0
2018-Apr-12 11:58N 59°28' E 024°39'0 0.0
2018-Apr-12 11:22N 59°28' E 024°39'0 0.0
2018-Apr-12 10:58N 59°28' E 024°39'0 0.0
2018-Apr-12 10:28N 59°28' E 024°39'0 0.0
2018-Apr-12 09:58N 59°28' E 024°39'0 0.0
2018-Apr-12 09:28N 59°28' E 024°39'0 0.0
2018-Apr-12 08:58N 59°28' E 024°39'0 0.0
2018-Apr-12 08:28N 59°28' E 024°39'0 0.0
2018-Apr-12 07:58N 59°28' E 024°39'0 0.0
2018-Apr-12 07:28N 59°28' E 024°39'0 0.0
2018-Apr-12 06:58N 59°28' E 024°39'0 0.0
2018-Apr-12 06:28N 59°28' E 024°39'0 0.0
2018-Apr-12 05:58N 59°28' E 024°39'0 0.0
2018-Apr-12 05:28N 59°28' E 024°39'0 0.0
2018-Apr-12 04:58N 59°28' E 024°39'0 0.0
2018-Apr-12 04:28N 59°28' E 024°39'0 0.0
2018-Apr-12 03:58N 59°28' E 024°39'0 0.0
2018-Apr-12 03:28N 59°28' E 024°39'0 0.0
2018-Apr-12 02:58N 59°28' E 024°39'0 0.0
2018-Apr-12 02:28N 59°28' E 024°39'0 0.0
2018-Apr-12 01:58N 59°28' E 024°39'0 0.0
2018-Apr-12 01:28N 59°28' E 024°39'0 0.0
2018-Apr-12 00:58N 59°28' E 024°39'0 0.0
2018-Apr-12 00:28N 59°28' E 024°39'0 0.0
2018-Apr-11 23:58N 59°28' E 024°39'0 0.0
2018-Apr-11 23:28N 59°28' E 024°39'0 0.0
2018-Apr-11 22:58N 59°28' E 024°39'0 0.0
2018-Apr-11 22:28N 59°28' E 024°39'0 0.0
2018-Apr-11 21:58N 59°28' E 024°39'0 0.0
2018-Apr-11 21:28N 59°28' E 024°39'0 0.0
2018-Apr-11 20:55N 59°28' E 024°39'0 0.0
2018-Apr-11 20:28N 59°28' E 024°39'0 0.0
2018-Apr-11 19:58N 59°28' E 024°39'0 0.0
2018-Apr-11 19:28N 59°28' E 024°39'0 0.0
2018-Apr-11 18:58N 59°28' E 024°39'0 0.0
2018-Apr-11 18:28N 59°28' E 024°39'0 0.1
2018-Apr-11 17:58N 59°28' E 024°40'0 0.0
2018-Apr-11 17:28N 59°28' E 024°40'0 0.0
2018-Apr-11 16:58N 59°28' E 024°40'0 0.0
2018-Apr-11 16:28N 59°28' E 024°40'0 0.0
2018-Apr-11 15:58N 59°28' E 024°40'0 0.0
2018-Apr-11 15:28N 59°28' E 024°40'0 0.0
2018-Apr-11 14:58N 59°28' E 024°40'0 0.0
2018-Apr-11 14:28N 59°28' E 024°40'0 0.0
2018-Apr-11 13:58N 59°28' E 024°40'0 0.0
2018-Apr-11 13:28N 59°28' E 024°40'0 0.0
2018-Apr-11 12:58N 59°28' E 024°40'0 0.0
2018-Apr-11 12:28N 59°28' E 024°40'0 0.0
2018-Apr-11 11:58N 59°28' E 024°40'0 0.0
2018-Apr-11 11:28N 59°28' E 024°40'0 0.0
2018-Apr-11 10:58N 59°28' E 024°40'0 0.0
2018-Apr-11 10:28N 59°28' E 024°40'0 0.0
2018-Apr-11 09:58N 59°28' E 024°40'0 0.0
2018-Apr-11 09:28N 59°28' E 024°40'0 0.0
2018-Apr-11 08:58N 59°28' E 024°40'0 0.0
2018-Apr-11 08:28N 59°28' E 024°40'0 0.0
2018-Apr-11 07:58N 59°28' E 024°40'0 0.0
2018-Apr-11 07:28N 59°28' E 024°40'0 0.0
2018-Apr-11 06:58N 59°28' E 024°40'0 0.0
2018-Apr-11 06:28N 59°28' E 024°40'0 0.0
2018-Apr-11 05:58N 59°28' E 024°40'0 0.0
2018-Apr-11 05:28N 59°28' E 024°40'0 0.0
2018-Apr-11 04:58N 59°28' E 024°40'0 0.0
2018-Apr-11 04:28N 59°28' E 024°40'  

Dump ship's entire track history